Terminal Aerodrome Forecast
Issued by NWS Northern Indiana

Home | Current Version | Previous Version | Text Only | Print | Product List | Glossary On
Versions: 1 2 3 4 5 6 7 8 9 10 11 12 13
000
FTUS43 KIWX 131100
TAFFWA
TAF
KFWA 131120Z 1312/1412 25015G20KT P6SM SCT040 BKN150
     FM131300 26014KT P6SM BKN025
     FM131800 27010KT P6SM BKN040=

USA.gov is the U.S. government's official web portal to all federal, state and local government web resources and services.